CheckWX is a tool to help pilots better visualize weather data.  It is not intended as a substitute for an official pre-flight weather briefing.

17:24:56 UTC

KABE METAR
Lehigh Valley International Airport
Allentown, Pennsylvania, USA
Current

23 mins ago

KABE 251702Z 31007KT 2SM +RA BR FEW005 SCT022 OVC030 06/03 A2987 RMK AO2 P0006 T00560033
Observed
Jan-25 @ 17:02 UTC
Wind
  • 310° at 7 KTS
Visibility
2 SM
Flight Rules
IFR
Conditions
Heavy Rain, Mist
Cloud Levels
  • Few at 500' AGL
  • Scattered at 2,200' AGL
  • Overcast at 3,000' AGL
Temperature
C / 43°F
Dewpoint
C / 37°F
Humidity
81%
Altimeter
29.87" Hg
Pressure
1011.52 hPa
Current Rain
0.06"
Previous

34 mins ago

KABE 251651Z 29007KT 1 3/4SM +RA FEW005 OVC022 06/03 A2988 RMK AO2 SLP120 P0042 T00610033
Observed
Jan-25 @ 16:51 UTC
Wind
  • 290° at 7 KTS
Visibility
1 3/4 SM
Flight Rules
IFR
Conditions
Heavy Rain
Cloud Levels
  • Few at 500' AGL
  • Overcast at 2,200' AGL
Temperature
C / 43°F
Dewpoint
C / 37°F
Humidity
81%
Altimeter
29.88" Hg
Pressure
1011.82 hPa
Current Rain
0.42"
Previous

45 mins ago

KABE 251640Z 27006KT 1 3/4SM +RA BR FEW005 FEW009 OVC020 06/04 A2989 RMK AO2 P0035 T00610039
Observed
Jan-25 @ 16:40 UTC
Wind
  • 270° at 6 KTS
Visibility
1 3/4 SM
Flight Rules
IFR
Conditions
Heavy Rain, Mist
Cloud Levels
  • Few at 500' AGL
  • Few at 900' AGL
  • Overcast at 2,000' AGL
Temperature
C / 43°F
Dewpoint
C / 39°F
Humidity
87%
Altimeter
29.89" Hg
Pressure
1012.22 hPa
Current Rain
0.35"